sensor_id;sensor_type;location;lat;lon;timestamp;pressure;altitude;pressure_sealevel;temperature;humidity
81680;BME280;74989;52.210;5.148;2024-02-21T00:01:22;102203.09;;;10.00;81.20
81680;BME280;74989;52.210;5.148;2024-02-21T00:03:50;102204.31;;;9.97;81.57
81680;BME280;74989;52.210;5.148;2024-02-21T00:06:17;102201.47;;;9.99;81.35
81680;BME280;74989;52.210;5.148;2024-02-21T00:08:44;102192.34;;;9.95;81.45
81680;BME280;74989;52.210;5.148;2024-02-21T00:11:10;102203.94;;;10.00;81.59
81680;BME280;74989;52.210;5.148;2024-02-21T00:13:37;102198.25;;;10.10;80.97
81680;BME280;74989;52.210;5.148;2024-02-21T00:16:04;102185.81;;;10.04;80.74
81680;BME280;74989;52.210;5.148;2024-02-21T00:18:31;102180.16;;;10.07;80.80
81680;BME280;74989;52.210;5.148;2024-02-21T00:20:59;102187.47;;;10.05;81.22
81680;BME280;74989;52.210;5.148;2024-02-21T00:23:27;102173.25;;;9.99;81.39
81680;BME280;74989;52.210;5.148;2024-02-21T00:25:53;102178.13;;;10.02;81.42
81680;BME280;74989;52.210;5.148;2024-02-21T00:28:20;102186.03;;;10.02;82.14
81680;BME280;74989;52.210;5.148;2024-02-21T00:30:47;102177.91;;;9.97;82.01
81680;BME280;74989;52.210;5.148;2024-02-21T00:33:16;102197.22;;;10.04;81.98
81680;BME280;74989;52.210;5.148;2024-02-21T00:35:43;102190.31;;;10.03;81.41
81680;BME280;74989;52.210;5.148;2024-02-21T00:38:10;102194.78;;;10.03;82.10
81680;BME280;74989;52.210;5.148;2024-02-21T00:40:37;102191.31;;;10.09;82.45
81680;BME280;74989;52.210;5.148;2024-02-21T00:43:04;102183.78;;;10.06;82.47
81680;BME280;74989;52.210;5.148;2024-02-21T00:45:31;102175.91;;;10.12;82.42
81680;BME280;74989;52.210;5.148;2024-02-21T00:47:57;102177.94;;;10.17;82.05
81680;BME280;74989;52.210;5.148;2024-02-21T00:50:24;102177.53;;;10.13;81.51
81680;BME280;74989;52.210;5.148;2024-02-21T00:52:51;102169.41;;;10.15;81.38
81680;BME280;74989;52.210;5.148;2024-02-21T00:55:19;102174.47;;;10.10;81.69
81680;BME280;74989;52.210;5.148;2024-02-21T00:57:44;102181.34;;;10.11;82.20
81680;BME280;74989;52.210;5.148;2024-02-21T01:00:12;102194.78;;;10.09;82.12
81680;BME280;74989;52.210;5.148;2024-02-21T01:02:39;102189.91;;;10.13;81.76
81680;BME280;74989;52.210;5.148;2024-02-21T01:05:06;102176.53;;;10.14;81.48
81680;BME280;74989;52.210;5.148;2024-02-21T01:07:33;102176.06;;;10.11;81.55
81680;BME280;74989;52.210;5.148;2024-02-21T01:09:59;102175.69;;;10.07;82.11
81680;BME280;74989;52.210;5.148;2024-02-21T01:12:27;102168.97;;;10.18;81.56
81680;BME280;74989;52.210;5.148;2024-02-21T01:14:54;102172.22;;;10.20;81.69
81680;BME280;74989;52.210;5.148;2024-02-21T01:17:21;102166.56;;;10.16;81.81
81680;BME280;74989;52.210;5.148;2024-02-21T01:19:47;102163.91;;;10.23;81.13
81680;BME280;74989;52.210;5.148;2024-02-21T01:22:14;102159.81;;;10.27;80.87
81680;BME280;74989;52.210;5.148;2024-02-21T01:24:41;102151.69;;;10.28;81.10
81680;BME280;74989;52.210;5.148;2024-02-21T01:27:08;102152.91;;;10.32;80.52
81680;BME280;74989;52.210;5.148;2024-02-21T01:29:36;102149.06;;;10.28;81.03
81680;BME280;74989;52.210;5.148;2024-02-21T01:32:03;102149.44;;;10.32;80.64
81680;BME280;74989;52.210;5.148;2024-02-21T01:34:30;102136.47;;;10.24;80.83
81680;BME280;74989;52.210;5.148;2024-02-21T01:36:56;102137.47;;;10.23;81.02
81680;BME280;74989;52.210;5.148;2024-02-21T01:39:24;102116.59;;;10.15;80.98
81680;BME280;74989;52.210;5.148;2024-02-21T01:41:51;102122.03;;;10.20;81.67
81680;BME280;74989;52.210;5.148;2024-02-21T01:44:17;102106.81;;;10.22;81.23
81680;BME280;74989;52.210;5.148;2024-02-21T01:46:46;102116.94;;;10.31;80.93
81680;BME280;74989;52.210;5.148;2024-02-21T01:49:12;102111.88;;;10.23;80.99
81680;BME280;74989;52.210;5.148;2024-02-21T01:51:39;102110.41;;;10.34;80.72
81680;BME280;74989;52.210;5.148;2024-02-21T01:54:06;102114.53;;;10.23;81.25
81680;BME280;74989;52.210;5.148;2024-02-21T01:56:33;102112.88;;;10.22;81.12
81680;BME280;74989;52.210;5.148;2024-02-21T01:59:00;102114.31;;;10.25;81.37
81680;BME280;74989;52.210;5.148;2024-02-21T02:01:29;102107.41;;;10.24;81.27
81680;BME280;74989;52.210;5.148;2024-02-21T02:03:59;102113.91;;;10.28;81.37
81680;BME280;74989;52.210;5.148;2024-02-21T02:06:26;102104.78;;;10.24;81.56
81680;BME280;74989;52.210;5.148;2024-02-21T02:08:53;102099.06;;;10.20;81.57
81680;BME280;74989;52.210;5.148;2024-02-21T02:11:20;102104.34;;;10.27;81.10
81680;BME280;74989;52.210;5.148;2024-02-21T02:13:47;102095.22;;;10.23;81.64
81680;BME280;74989;52.210;5.148;2024-02-21T02:16:14;102095.41;;;10.28;81.11
81680;BME280;74989;52.210;5.148;2024-02-21T02:18:40;102085.84;;;10.27;81.20
81680;BME280;74989;52.210;5.148;2024-02-21T02:21:13;102080.41;;;10.22;81.50
81680;BME280;74989;52.210;5.148;2024-02-21T02:23:48;102086.03;;;10.32;81.34
81680;BME280;74989;52.210;5.148;2024-02-21T02:26:15;102076.91;;;10.28;81.19
81680;BME280;74989;52.210;5.148;2024-02-21T02:28:42;102072.88;;;10.19;81.44
81680;BME280;74989;52.210;5.148;2024-02-21T02:31:08;102074.06;;;10.23;81.79
81680;BME280;74989;52.210;5.148;2024-02-21T02:33:35;102078.72;;;10.27;81.85
81680;BME280;74989;52.210;5.148;2024-02-21T02:36:02;102070.63;;;10.29;81.21
81680;BME280;74989;52.210;5.148;2024-02-21T02:38:28;102067.94;;;10.35;81.00
81680;BME280;74989;52.210;5.148;2024-02-21T02:40:56;102080.34;;;10.35;81.07
81680;BME280;74989;52.210;5.148;2024-02-21T02:43:23;102069.78;;;10.28;81.38
81680;BME280;74989;52.210;5.148;2024-02-21T02:45:50;102068.94;;;10.34;81.03
81680;BME280;74989;52.210;5.148;2024-02-21T02:48:16;102063.91;;;10.26;81.22
81680;BME280;74989;52.210;5.148;2024-02-21T02:50:45;102065.97;;;10.24;81.44
81680;BME280;74989;52.210;5.148;2024-02-21T02:53:12;102041.38;;;10.17;81.38
81680;BME280;74989;52.210;5.148;2024-02-21T02:55:38;102055.53;;;10.29;81.58
81680;BME280;74989;52.210;5.148;2024-02-21T02:58:07;102052.13;;;10.29;81.65
81680;BME280;74989;52.210;5.148;2024-02-21T03:00:34;102040.50;;;10.30;81.23
81680;BME280;74989;52.210;5.148;2024-02-21T03:03:01;102037.13;;;10.16;81.56
81680;BME280;74989;52.210;5.148;2024-02-21T03:05:29;102041.75;;;10.27;81.46
81680;BME280;74989;52.210;5.148;2024-02-21T03:07:56;102046.66;;;10.24;81.76
81680;BME280;74989;52.210;5.148;2024-02-21T03:10:23;102034.84;;;10.26;81.34
81680;BME280;74989;52.210;5.148;2024-02-21T03:12:49;102017.19;;;10.20;81.29
81680;BME280;74989;52.210;5.148;2024-02-21T03:15:19;102018.81;;;10.21;81.38
81680;BME280;74989;52.210;5.148;2024-02-21T03:17:46;102025.69;;;10.29;81.21
81680;BME280;74989;52.210;5.148;2024-02-21T03:20:12;102019.41;;;10.23;81.64
81680;BME280;74989;52.210;5.148;2024-02-21T03:22:39;102013.72;;;10.26;81.34
81680;BME280;74989;52.210;5.148;2024-02-21T03:25:07;102010.28;;;10.19;82.36
81680;BME280;74989;52.210;5.148;2024-02-21T03:27:34;102010.88;;;10.21;81.80
81680;BME280;74989;52.210;5.148;2024-02-21T03:30:01;101986.47;;;10.26;80.91
81680;BME280;74989;52.210;5.148;2024-02-21T03:32:29;101998.25;;;10.30;81.09
81680;BME280;74989;52.210;5.148;2024-02-21T03:34:56;101990.34;;;10.23;81.89
81680;BME280;74989;52.210;5.148;2024-02-21T03:37:22;101984.66;;;10.26;81.20
81680;BME280;74989;52.210;5.148;2024-02-21T03:39:49;101980.97;;;10.27;81.28
81680;BME280;74989;52.210;5.148;2024-02-21T03:42:16;101978.97;;;10.23;81.40
81680;BME280;74989;52.210;5.148;2024-02-21T03:44:42;101982.00;;;10.20;81.62
81680;BME280;74989;52.210;5.148;2024-02-21T03:47:09;101980.00;;;10.22;81.44
81680;BME280;74989;52.210;5.148;2024-02-21T03:49:38;101988.53;;;10.24;81.26
81680;BME280;74989;52.210;5.148;2024-02-21T03:52:05;101984.66;;;10.20;81.64
81680;BME280;74989;52.210;5.148;2024-02-21T03:54:31;101982.59;;;10.28;81.15
81680;BME280;74989;52.210;5.148;2024-02-21T03:56:58;101975.50;;;10.22;81.31
81680;BME280;74989;52.210;5.148;2024-02-21T03:59:24;101978.97;;;10.23;81.53
81680;BME280;74989;52.210;5.148;2024-02-21T04:01:51;101971.44;;;10.20;81.60
81680;BME280;74989;52.210;5.148;2024-02-21T04:04:18;101975.91;;;10.26;81.25
81680;BME280;74989;52.210;5.148;2024-02-21T04:06:49;101976.72;;;10.26;81.48
81680;BME280;74989;52.210;5.148;2024-02-21T04:09:16;101984.25;;;10.23;81.80
81680;BME280;74989;52.210;5.148;2024-02-21T04:11:43;101970.22;;;10.22;81.57
81680;BME280;74989;52.210;5.148;2024-02-21T04:14:10;101958.66;;;10.23;81.46
81680;BME280;74989;52.210;5.148;2024-02-21T04:16:37;101959.28;;;10.19;81.71
81680;BME280;74989;52.210;5.148;2024-02-21T04:19:04;101955.19;;;10.23;81.34
81680;BME280;74989;52.210;5.148;2024-02-21T04:21:30;101958.88;;;10.22;81.31
81680;BME280;74989;52.210;5.148;2024-02-21T04:23:58;101948.94;;;10.17;81.36
81680;BME280;74989;52.210;5.148;2024-02-21T04:26:26;101929.22;;;10.07;80.91
81680;BME280;74989;52.210;5.148;2024-02-21T04:28:53;101950.78;;;10.10;81.27
81680;BME280;74989;52.210;5.148;2024-02-21T04:31:20;101958.69;;;10.04;81.49
81680;BME280;74989;52.210;5.148;2024-02-21T04:33:46;101958.69;;;10.10;81.19
81680;BME280;74989;52.210;5.148;2024-02-21T04:36:13;101960.34;;;10.05;81.35
81680;BME280;74989;52.210;5.148;2024-02-21T04:38:40;101955.69;;;10.00;82.08
81680;BME280;74989;52.210;5.148;2024-02-21T04:41:08;101950.13;;;10.08;81.55
81680;BME280;74989;52.210;5.148;2024-02-21T04:43:34;101942.66;;;9.99;81.33
81680;BME280;74989;52.210;5.148;2024-02-21T04:46:01;101929.28;;;10.00;81.67
81680;BME280;74989;52.210;5.148;2024-02-21T04:48:28;101937.38;;;9.99;81.46
81680;BME280;74989;52.210;5.148;2024-02-21T04:50:54;101937.22;;;9.94;81.75
81680;BME280;74989;52.210;5.148;2024-02-21T04:53:21;101939.41;;;10.03;81.40
81680;BME280;74989;52.210;5.148;2024-02-21T04:55:48;101928.06;;;9.96;81.37
81680;BME280;74989;52.210;5.148;2024-02-21T04:58:16;101924.44;;;9.91;82.30
81680;BME280;74989;52.210;5.148;2024-02-21T05:00:42;101926.03;;;9.92;81.11
81680;BME280;74989;52.210;5.148;2024-02-21T05:03:09;101925.03;;;9.93;81.27
81680;BME280;74989;52.210;5.148;2024-02-21T05:05:36;101931.75;;;9.89;81.58
81680;BME280;74989;52.210;5.148;2024-02-21T05:08:03;101934.59;;;9.87;81.53
81680;BME280;74989;52.210;5.148;2024-02-21T05:10:30;101908.22;;;9.81;81.23
81680;BME280;74989;52.210;5.148;2024-02-21T05:12:57;101934.41;;;9.89;81.80
81680;BME280;74989;52.210;5.148;2024-02-21T05:15:25;101911.00;;;9.92;81.10
81680;BME280;74989;52.210;5.148;2024-02-21T05:17:52;101911.88;;;9.86;81.95
81680;BME280;74989;52.210;5.148;2024-02-21T05:20:19;101902.13;;;9.87;81.57
81680;BME280;74989;52.210;5.148;2024-02-21T05:22:45;101900.91;;;9.89;81.42
81680;BME280;74989;52.210;5.148;2024-02-21T05:25:12;101898.84;;;9.85;81.38
81680;BME280;74989;52.210;5.148;2024-02-21T05:27:39;101879.03;;;9.69;81.86
81680;BME280;74989;52.210;5.148;2024-02-21T05:30:06;101870.84;;;9.84;81.39
81680;BME280;74989;52.210;5.148;2024-02-21T05:32:34;101875.94;;;9.79;81.38
81680;BME280;74989;52.210;5.148;2024-02-21T05:35:01;101872.50;;;9.78;81.95
81680;BME280;74989;52.210;5.148;2024-02-21T05:37:27;101868.63;;;9.81;81.82
81680;BME280;74989;52.210;5.148;2024-02-21T05:39:54;101864.75;;;9.83;81.06
81680;BME280;74989;52.210;5.148;2024-02-21T05:42:21;101848.31;;;9.81;81.23
81680;BME280;74989;52.210;5.148;2024-02-21T05:44:47;101845.72;;;9.75;81.79
81680;BME280;74989;52.210;5.148;2024-02-21T05:47:14;101843.06;;;9.75;82.02
81680;BME280;74989;52.210;5.148;2024-02-21T05:49:42;101841.72;;;9.65;82.83
81680;BME280;74989;52.210;5.148;2024-02-21T05:52:09;101843.91;;;9.75;82.32
81680;BME280;74989;52.210;5.148;2024-02-21T05:54:37;101839.41;;;9.76;82.25
81680;BME280;74989;52.210;5.148;2024-02-21T05:57:04;101824.16;;;9.78;81.76
81680;BME280;74989;52.210;5.148;2024-02-21T05:59:31;101830.25;;;9.78;81.31
81680;BME280;74989;52.210;5.148;2024-02-21T06:01:58;101835.13;;;9.81;81.92
81680;BME280;74989;52.210;5.148;2024-02-21T06:04:24;101834.72;;;9.78;82.14
81680;BME280;74989;52.210;5.148;2024-02-21T06:06:52;101836.97;;;9.74;82.23
81680;BME280;74989;52.210;5.148;2024-02-21T06:09:19;101832.72;;;9.73;82.37
81680;BME280;74989;52.210;5.148;2024-02-21T06:11:46;101826.19;;;9.76;82.00
81680;BME280;74989;52.210;5.148;2024-02-21T06:14:14;101823.38;;;9.77;82.10
81680;BME280;74989;52.210;5.148;2024-02-21T06:16:41;101813.69;;;9.64;82.10
81680;BME280;74989;52.210;5.148;2024-02-21T06:19:08;101811.03;;;9.64;81.81
81680;BME280;74989;52.210;5.148;2024-02-21T06:21:34;101822.16;;;9.80;81.56
81680;BME280;74989;52.210;5.148;2024-02-21T06:24:03;101802.13;;;9.65;81.35
81680;BME280;74989;52.210;5.148;2024-02-21T06:26:29;101827.41;;;9.80;81.48
81680;BME280;74989;52.210;5.148;2024-02-21T06:28:56;101834.13;;;9.82;81.68
81680;BME280;74989;52.210;5.148;2024-02-21T06:31:25;101842.03;;;9.76;82.02
81680;BME280;74989;52.210;5.148;2024-02-21T06:33:51;101846.31;;;9.77;81.72
81680;BME280;74989;52.210;5.148;2024-02-21T06:36:18;101839.41;;;9.82;81.40
81680;BME280;74989;52.210;5.148;2024-02-21T06:38:44;101841.63;;;9.79;81.63
81680;BME280;74989;52.210;5.148;2024-02-21T06:41:15;101837.56;;;9.76;81.72
81680;BME280;74989;52.210;5.148;2024-02-21T06:43:43;101835.16;;;9.75;82.20
81680;BME280;74989;52.210;5.148;2024-02-21T06:46:10;101827.41;;;9.80;81.73
81680;BME280;74989;52.210;5.148;2024-02-21T06:48:37;101802.88;;;9.73;81.54
81680;BME280;74989;52.210;5.148;2024-02-21T06:51:04;101830.25;;;9.78;82.03
81680;BME280;74989;52.210;5.148;2024-02-21T06:53:31;101800.88;;;9.68;81.60
81680;BME280;74989;52.210;5.148;2024-02-21T06:55:57;101816.09;;;9.73;81.44
81680;BME280;74989;52.210;5.148;2024-02-21T06:58:25;101804.31;;;9.75;81.51
81680;BME280;74989;52.210;5.148;2024-02-21T07:00:52;101809.34;;;9.77;81.54
81680;BME280;74989;52.210;5.148;2024-02-21T07:03:19;101803.47;;;9.75;81.78
81680;BME280;74989;52.210;5.148;2024-02-21T07:05:45;101810.38;;;9.76;81.88
81680;BME280;74989;52.210;5.148;2024-02-21T07:08:12;101797.97;;;9.76;81.23
81680;BME280;74989;52.210;5.148;2024-02-21T07:10:39;101792.56;;;9.64;81.64
81680;BME280;74989;52.210;5.148;2024-02-21T07:13:05;101802.66;;;9.74;81.41
81680;BME280;74989;52.210;5.148;2024-02-21T07:15:33;101791.72;;;9.70;81.28
81680;BME280;74989;52.210;5.148;2024-02-21T07:18:01;101792.94;;;9.75;81.32
81680;BME280;74989;52.210;5.148;2024-02-21T07:20:28;101792.53;;;9.71;81.31
81680;BME280;74989;52.210;5.148;2024-02-21T07:22:55;101791.56;;;9.65;81.42
81680;BME280;74989;52.210;5.148;2024-02-21T07:25:22;101797.00;;;9.70;81.31
81680;BME280;74989;52.210;5.148;2024-02-21T07:27:48;101793.69;;;9.82;80.49
81680;BME280;74989;52.210;5.148;2024-02-21T07:30:15;101784.22;;;9.67;80.62
81680;BME280;74989;52.210;5.148;2024-02-21T07:32:43;101784.81;;;9.69;80.91
81680;BME280;74989;52.210;5.148;2024-02-21T07:35:11;101787.66;;;9.75;80.88
81680;BME280;74989;52.210;5.148;2024-02-21T07:37:38;101770.41;;;9.72;81.09
81680;BME280;74989;52.210;5.148;2024-02-21T07:40:06;101757.97;;;9.79;80.41
81680;BME280;74989;52.210;5.148;2024-02-21T07:42:33;101753.91;;;9.77;80.66
81680;BME280;74989;52.210;5.148;2024-02-21T07:45:01;101746.38;;;9.80;80.50
81680;BME280;74989;52.210;5.148;2024-02-21T07:47:28;101741.16;;;9.74;81.35
81680;BME280;74989;52.210;5.148;2024-02-21T07:49:56;101737.50;;;9.75;81.27
81680;BME280;74989;52.210;5.148;2024-02-21T07:52:23;101742.56;;;9.76;81.07
81680;BME280;74989;52.210;5.148;2024-02-21T07:54:50;101733.81;;;9.76;81.29
81680;BME280;74989;52.210;5.148;2024-02-21T07:57:17;101733.22;;;9.74;81.45
81680;BME280;74989;52.210;5.148;2024-02-21T07:59:43;101733.88;;;9.69;81.47
81680;BME280;74989;52.210;5.148;2024-02-21T08:02:13;101744.53;;;9.81;81.00
81680;BME280;74989;52.210;5.148;2024-02-21T08:04:39;101735.03;;;9.80;81.32
81680;BME280;74989;52.210;5.148;2024-02-21T08:07:08;101716.19;;;9.69;80.64
81680;BME280;74989;52.210;5.148;2024-02-21T08:09:35;101711.56;;;9.65;81.23
81680;BME280;74989;52.210;5.148;2024-02-21T08:12:03;101729.09;;;9.84;80.76
81680;BME280;74989;52.210;5.148;2024-02-21T08:14:30;101704.34;;;9.79;80.68
81680;BME280;74989;52.210;5.148;2024-02-21T08:16:59;101723.81;;;9.84;80.46
81680;BME280;74989;52.210;5.148;2024-02-21T08:19:25;101719.56;;;9.83;80.83
81680;BME280;74989;52.210;5.148;2024-02-21T08:21:52;101720.16;;;9.85;80.88
81680;BME280;74989;52.210;5.148;2024-02-21T08:24:20;101722.59;;;9.87;80.37
81680;BME280;74989;52.210;5.148;2024-02-21T08:26:48;101709.00;;;9.83;80.43
81680;BME280;74989;52.210;5.148;2024-02-21T08:29:15;101701.25;;;9.88;80.31
81680;BME280;74989;52.210;5.148;2024-02-21T08:31:41;101685.28;;;9.77;80.20
81680;BME280;74989;52.210;5.148;2024-02-21T08:34:08;101695.19;;;9.81;81.15
81680;BME280;74989;52.210;5.148;2024-02-21T08:36:35;101690.63;;;9.95;79.88
81680;BME280;74989;52.210;5.148;2024-02-21T08:39:03;101697.94;;;9.93;80.04
81680;BME280;74989;52.210;5.148;2024-02-21T08:41:32;101693.69;;;9.92;79.94
81680;BME280;74989;52.210;5.148;2024-02-21T08:43:59;101678.47;;;9.94;80.05
81680;BME280;74989;52.210;5.148;2024-02-21T08:46:29;101675.38;;;9.97;79.43
81680;BME280;74989;52.210;5.148;2024-02-21T08:48:55;101671.72;;;9.98;79.71
81680;BME280;74989;52.210;5.148;2024-02-21T08:51:22;101671.94;;;9.96;79.84
81680;BME280;74989;52.210;5.148;2024-02-21T08:53:49;101671.88;;;10.03;79.23
81680;BME280;74989;52.210;5.148;2024-02-21T08:56:17;101671.88;;;10.03;79.14
81680;BME280;74989;52.210;5.148;2024-02-21T08:58:45;101673.69;;;10.02;79.46
81680;BME280;74989;52.210;5.148;2024-02-21T09:01:12;101656.03;;;10.03;78.76
81680;BME280;74989;52.210;5.148;2024-02-21T09:03:39;101665.72;;;10.09;78.88
81680;BME280;74989;52.210;5.148;2024-02-21T09:06:06;101665.72;;;10.09;78.88
81680;BME280;74989;52.210;5.148;2024-02-21T09:08:33;101657.09;;;10.20;78.52
81680;BME280;74989;52.210;5.148;2024-02-21T09:11:00;101640.31;;;10.14;79.02
81680;BME280;74989;52.210;5.148;2024-02-21T09:13:27;101644.50;;;10.22;78.48
81680;BME280;74989;52.210;5.148;2024-02-21T09:15:55;101650.44;;;10.17;79.03
81680;BME280;74989;52.210;5.148;2024-02-21T09:18:22;101635.53;;;10.23;77.92
81680;BME280;74989;52.210;5.148;2024-02-21T09:20:49;101651.22;;;10.18;78.75
81680;BME280;74989;52.210;5.148;2024-02-21T09:23:16;101622.56;;;10.21;78.30
81680;BME280;74989;52.210;5.148;2024-02-21T09:25:45;101623.50;;;10.27;78.09
81680;BME280;74989;52.210;5.148;2024-02-21T09:28:12;101624.81;;;10.18;78.19
81680;BME280;74989;52.210;5.148;2024-02-21T09:30:39;101618.28;;;10.20;77.84
81680;BME280;74989;52.210;5.148;2024-02-21T09:33:07;101604.78;;;10.10;78.38
81680;BME280;74989;52.210;5.148;2024-02-21T09:35:48;101583.91;;;10.02;78.17
81680;BME280;74989;52.210;5.148;2024-02-21T09:38:15;101575.84;;;9.97;78.46
81680;BME280;74989;52.210;5.148;2024-02-21T09:40:44;101584.53;;;10.22;77.92
81680;BME280;74989;52.210;5.148;2024-02-21T09:43:11;101598.13;;;10.26;78.04
81680;BME280;74989;52.210;5.148;2024-02-21T09:45:44;101570.22;;;10.30;76.87
81680;BME280;74989;52.210;5.148;2024-02-21T09:48:25;101567.97;;;10.33;77.31
81680;BME280;74989;52.210;5.148;2024-02-21T09:50:57;101570.53;;;10.40;77.28
81680;BME280;74989;52.210;5.148;2024-02-21T09:53:25;101539.91;;;10.32;75.97
81680;BME280;74989;52.210;5.148;2024-02-21T09:55:53;101549.16;;;10.42;76.02
81680;BME280;74989;52.210;5.148;2024-02-21T09:58:20;101515.41;;;10.25;76.64
81680;BME280;74989;52.210;5.148;2024-02-21T10:00:48;101533.16;;;10.36;77.03
81680;BME280;74989;52.210;5.148;2024-02-21T10:03:16;101523.44;;;10.49;76.60
81680;BME280;74989;52.210;5.148;2024-02-21T10:05:47;101525.78;;;10.57;76.10
81680;BME280;74989;52.210;5.148;2024-02-21T10:08:15;101517.63;;;10.58;75.95
81680;BME280;74989;52.210;5.148;2024-02-21T10:10:43;101515.13;;;10.63;75.93
81680;BME280;74989;52.210;5.148;2024-02-21T10:13:10;101507.78;;;10.65;75.02
81680;BME280;74989;52.210;5.148;2024-02-21T10:15:37;101509.44;;;10.78;75.33
81680;BME280;74989;52.210;5.148;2024-02-21T10:18:04;101504.16;;;10.78;75.00
81680;BME280;74989;52.210;5.148;2024-02-21T10:20:33;101504.41;;;10.99;74.70
81680;BME280;74989;52.210;5.148;2024-02-21T10:23:01;101498.78;;;11.07;74.28
81680;BME280;74989;52.210;5.148;2024-02-21T10:25:29;101490.63;;;11.09;72.61
81680;BME280;74989;52.210;5.148;2024-02-21T10:27:56;101484.88;;;11.00;73.40
81680;BME280;74989;52.210;5.148;2024-02-21T10:30:23;101486.38;;;10.96;73.17
81680;BME280;74989;52.210;5.148;2024-02-21T10:32:50;101472.00;;;10.92;74.36
81680;BME280;74989;52.210;5.148;2024-02-21T10:35:26;101459.69;;;10.98;74.15
81680;BME280;74989;52.210;5.148;2024-02-21T10:37:55;101458.44;;;11.00;73.99
81680;BME280;74989;52.210;5.148;2024-02-21T10:40:23;101447.97;;;11.05;73.19
81680;BME280;74989;52.210;5.148;2024-02-21T10:42:53;101460.16;;;11.06;73.54
81680;BME280;74989;52.210;5.148;2024-02-21T10:45:23;101444.41;;;11.12;72.37
81680;BME280;74989;52.210;5.148;2024-02-21T10:47:55;101425.09;;;11.11;72.51
81680;BME280;74989;52.210;5.148;2024-02-21T10:50:25;101410.94;;;11.05;72.73
81680;BME280;74989;52.210;5.148;2024-02-21T10:53:01;101408.97;;;11.01;73.22
81680;BME280;74989;52.210;5.148;2024-02-21T10:55:37;101382.16;;;11.09;73.64
81680;BME280;74989;52.210;5.148;2024-02-21T10:58:05;101342.50;;;10.97;72.95
81680;BME280;74989;52.210;5.148;2024-02-21T11:00:33;101361.81;;;11.21;71.77
81680;BME280;74989;52.210;5.148;2024-02-21T11:03:00;101424.84;;;11.13;72.90
81680;BME280;74989;52.210;5.148;2024-02-21T11:05:27;101426.13;;;11.10;73.13
81680;BME280;74989;52.210;5.148;2024-02-21T11:07:57;101440.94;;;10.99;73.35
81680;BME280;74989;52.210;5.148;2024-02-21T11:10:24;101437.38;;;11.05;73.09
81680;BME280;74989;52.210;5.148;2024-02-21T11:12:52;101427.72;;;10.99;72.76
81680;BME280;74989;52.210;5.148;2024-02-21T11:15:25;101417.94;;;10.88;73.31
81680;BME280;74989;52.210;5.148;2024-02-21T11:17:55;101410.44;;;10.74;73.34
81680;BME280;74989;52.210;5.148;2024-02-21T11:20:32;101435.97;;;10.80;73.92
81680;BME280;74989;52.210;5.148;2024-02-21T11:23:00;101430.56;;;10.75;74.39
81680;BME280;74989;52.210;5.148;2024-02-21T11:25:27;101409.09;;;10.71;74.43
81680;BME280;74989;52.210;5.148;2024-02-21T11:28:02;101408.03;;;10.84;74.16
81680;BME280;74989;52.210;5.148;2024-02-21T11:30:30;101394.63;;;10.85;72.97
81680;BME280;74989;52.210;5.148;2024-02-21T11:33:01;101387.00;;;10.77;73.16
81680;BME280;74989;52.210;5.148;2024-02-21T11:35:32;101377.13;;;10.73;73.18
81680;BME280;74989;52.210;5.148;2024-02-21T11:38:11;101350.00;;;10.66;73.17
81680;BME280;74989;52.210;5.148;2024-02-21T11:40:40;101346.78;;;10.64;73.61
81680;BME280;74989;52.210;5.148;2024-02-21T11:43:07;101351.25;;;10.63;73.69
81680;BME280;74989;52.210;5.148;2024-02-21T11:45:34;101333.44;;;10.70;73.38
81680;BME280;74989;52.210;5.148;2024-02-21T11:48:00;101328.16;;;10.70;73.09
81680;BME280;74989;52.210;5.148;2024-02-21T11:50:29;101316.56;;;10.83;73.41
81680;BME280;74989;52.210;5.148;2024-02-21T11:52:56;101298.03;;;10.94;73.38
81680;BME280;74989;52.210;5.148;2024-02-21T11:55:24;101292.03;;;10.99;73.44
81680;BME280;74989;52.210;5.148;2024-02-21T11:57:50;101277.03;;;11.16;72.78
81680;BME280;74989;52.210;5.148;2024-02-21T12:00:18;101268.28;;;11.27;71.89
81680;BME280;74989;52.210;5.148;2024-02-21T12:02:47;101258.94;;;11.36;72.27
81680;BME280;74989;52.210;5.148;2024-02-21T12:05:15;101241.75;;;11.50;71.24
81680;BME280;74989;52.210;5.148;2024-02-21T12:07:42;101241.66;;;11.73;69.64
81680;BME280;74989;52.210;5.148;2024-02-21T12:10:10;101233.00;;;11.78;68.81
81680;BME280;74989;52.210;5.148;2024-02-21T12:12:39;101221.84;;;11.76;69.42
81680;BME280;74989;52.210;5.148;2024-02-21T12:15:06;101220.56;;;11.79;70.46
81680;BME280;74989;52.210;5.148;2024-02-21T12:17:33;101201.69;;;11.75;70.91
81680;BME280;74989;52.210;5.148;2024-02-21T12:20:01;101234.53;;;11.91;70.95
81680;BME280;74989;52.210;5.148;2024-02-21T12:22:30;101220.41;;;11.85;70.92
81680;BME280;74989;52.210;5.148;2024-02-21T12:24:57;101211.00;;;11.78;70.25
81680;BME280;74989;52.210;5.148;2024-02-21T12:27:24;101199.75;;;11.70;70.71
81680;BME280;74989;52.210;5.148;2024-02-21T12:29:53;101199.88;;;11.64;71.00
81680;BME280;74989;52.210;5.148;2024-02-21T12:32:19;101179.59;;;11.53;71.62
81680;BME280;74989;52.210;5.148;2024-02-21T12:34:46;101172.59;;;11.63;71.30
81680;BME280;74989;52.210;5.148;2024-02-21T12:37:13;101172.03;;;11.61;71.67
81680;BME280;74989;52.210;5.148;2024-02-21T12:39:41;101155.69;;;11.64;71.07
81680;BME280;74989;52.210;5.148;2024-02-21T12:42:08;101148.94;;;11.57;70.36
81680;BME280;74989;52.210;5.148;2024-02-21T12:44:36;101142.66;;;11.63;70.99
81680;BME280;74989;52.210;5.148;2024-02-21T12:47:06;101139.91;;;11.69;69.99
81680;BME280;74989;52.210;5.148;2024-02-21T12:49:33;101125.28;;;11.67;70.41
81680;BME280;74989;52.210;5.148;2024-02-21T12:52:00;101110.06;;;11.74;70.54
81680;BME280;74989;52.210;5.148;2024-02-21T12:54:27;101118.09;;;11.79;69.72